Abraham Lincoln — WDC2286 — position and weather

sailwx.info

Track history (hours):
 
Tides and Currents Weather Stations Pressure Air Temp Water Temp Dewpoint Dewpoint Depression Visibility Wind Speed Wind Dir Waves Ship Positions

Abraham Lincoln

Owner: PORT IMPERIAL FERRY CORP, WEEHAWKEN, NJ. More information available from US FCC via Universal Licensing System and Coast Guard Vessel Documentation Center.

Last reported at 2018-Feb-20 23:58 UTC. Time now 2018-Feb-21 11:00 UTC.
Position N 40°44' W 074°02'.

Length 30 m; draft 2 m.

Type: Passenger vessel. MMSI: 366990620.

Date/timePositionNaut miles runAvg speedWind from/ knotsBaromVisibWave heightAir tempDewpointWater temp
2018-Feb-20 23:58N 40°44' W 074°02'1 2.8
2018-Feb-20 23:31N 40°43' W 074°01'1 2.4
2018-Feb-20 23:00N 40°44' W 074°02'1 2.4
2018-Feb-20 22:30N 40°43' W 074°01'1 2.4
2018-Feb-20 22:00N 40°44' W 074°02'1 2.4
2018-Feb-20 21:30N 40°43' W 074°01'1 2.4
2018-Feb-20 21:00N 40°44' W 074°02'1 2.4
2018-Feb-20 20:31N 40°43' W 074°01'1 2.4
2018-Feb-20 20:00N 40°44' W 074°02'2 4.4
2018-Feb-20 19:29N 40°46' W 074°01'0 0.0
2018-Feb-20 19:00N 40°46' W 074°01'0 0.4
2018-Feb-20 18:29N 40°46' W 074°01'1 0.2
2018-Feb-20 15:27N 40°47' W 074°01'4 8.1
2018-Feb-20 15:00N 40°43' W 074°01'1 2.4
2018-Feb-20 14:30N 40°44' W 074°02'1 2.4
2018-Feb-20 14:00N 40°43' W 074°01'1 2.3
2018-Feb-20 13:29N 40°44' W 074°02'1 2.5
2018-Feb-20 13:00N 40°43' W 074°01'1 2.4
2018-Feb-20 12:30N 40°44' W 074°02'1 2.4
2018-Feb-20 12:00N 40°43' W 074°01'1 2.4
2018-Feb-20 11:30N 40°44' W 074°02'0 0.1
2018-Feb-20 10:59N 40°44' W 074°02'  
2018-Feb-17 02:15N 40°44' W 074°02'1 5.2
2018-Feb-17 02:01N 40°43' W 074°01'0 0.0
2018-Feb-17 01:30N 40°43' W 074°01'0 0.0
2018-Feb-17 01:00N 40°43' W 074°01'0 0.0
2018-Feb-17 00:30N 40°43' W 074°01'0 0.0
2018-Feb-17 00:00N 40°43' W 074°01'0 0.0
2018-Feb-16 23:30N 40°43' W 074°01'1 2.5
2018-Feb-16 23:00N 40°44' W 074°02'1 2.5
2018-Feb-16 22:30N 40°43' W 074°01'1 2.4
2018-Feb-16 22:00N 40°44' W 074°02'1 2.4
2018-Feb-16 21:30N 40°43' W 074°01'1 2.4
2018-Feb-16 20:59N 40°44' W 074°02'1 2.5
2018-Feb-16 20:30N 40°43' W 074°01'1 1.9
2018-Feb-16 20:00N 40°44' W 074°01'3 5.4
2018-Feb-16 19:30N 40°47' W 074°01'0 0.0
2018-Feb-16 15:51N 40°47' W 074°01'411.0
2018-Feb-16 15:30N 40°43' W 074°01'1 2.8
2018-Feb-16 15:00N 40°44' W 074°02'1 2.3
2018-Feb-16 14:30N 40°43' W 074°01'1 2.3
2018-Feb-16 14:00N 40°44' W 074°02'1 2.4
2018-Feb-16 13:30N 40°43' W 074°01'1 2.4
2018-Feb-16 13:00N 40°44' W 074°02'1 2.5
2018-Feb-16 12:30N 40°43' W 074°01'1 2.4
2018-Feb-16 12:00N 40°44' W 074°02'1 2.5
2018-Feb-16 11:30N 40°43' W 074°01'1 2.4
2018-Feb-16 11:00N 40°44' W 074°02'2 0.1
2018-Feb-15 16:22N 40°46' W 074°01'0 0.1
2018-Feb-15 15:59N 40°46' W 074°01'0 0.0
2018-Feb-15 15:30N 40°46' W 074°01'1 1.7
2018-Feb-15 15:00N 40°46' W 074°01'0 0.1
2018-Feb-15 14:30N 40°45' W 074°01'0 0.0
2018-Feb-15 14:00N 40°45' W 074°01'0 0.1
2018-Feb-15 13:30N 40°46' W 074°01'0 0.1
2018-Feb-15 13:00N 40°46' W 074°01'0 0.1
2018-Feb-15 12:30N 40°46' W 074°01'1 1.9
2018-Feb-15 12:00N 40°46' W 074°01'0 0.0
2018-Feb-15 01:45N 40°46' W 074°01'313.8
2018-Feb-15 01:30N 40°43' W 074°02'1 1.3
2018-Feb-15 01:00N 40°43' W 074°01'0 0.1
2018-Feb-15 00:30N 40°43' W 074°01'0 0.1
2018-Feb-15 00:00N 40°43' W 074°01'0 0.0
2018-Feb-14 23:30N 40°43' W 074°01'0 0.1
2018-Feb-14 23:00N 40°43' W 074°01'0 0.1
2018-Feb-14 22:30N 40°43' W 074°01'0 0.0
2018-Feb-14 22:00N 40°43' W 074°01'0 0.1
2018-Feb-14 21:30N 40°43' W 074°01'0 0.2
2018-Feb-14 21:00N 40°43' W 074°01'0 0.0
2018-Feb-14 20:30N 40°43' W 074°01'0 0.0
2018-Feb-14 20:00N 40°43' W 074°01'0 0.1
2018-Feb-14 19:30N 40°43' W 074°01'0 0.1
2018-Feb-14 19:00N 40°43' W 074°01'0 0.1
2018-Feb-14 18:30N 40°43' W 074°01'0 0.0
2018-Feb-14 18:00N 40°43' W 074°01'0 0.0
2018-Feb-14 17:30N 40°43' W 074°01'0 0.0
2018-Feb-14 17:00N 40°43' W 074°01'0 0.0
2018-Feb-14 16:30N 40°43' W 074°01'0 0.1
2018-Feb-14 16:00N 40°43' W 074°01'0 0.1
2018-Feb-14 15:30N 40°43' W 074°01'0 0.0
2018-Feb-14 15:00N 40°43' W 074°01'0 0.3
2018-Feb-14 14:30N 40°43' W 074°01'0 0.3
2018-Feb-14 14:00N 40°43' W 074°01'0 0.0
2018-Feb-14 13:30N 40°43' W 074°01'0 0.1
2018-Feb-14 13:00N 40°43' W 074°01'0 0.2
2018-Feb-14 12:31N 40°43' W 074°01'0 0.1
2018-Feb-14 12:00N 40°43' W 074°01'0 0.1
2018-Feb-14 11:30N 40°43' W 074°01'1 2.6
2018-Feb-14 11:01N 40°44' W 074°02'0 0.0
2018-Feb-14 01:38N 40°44' W 074°02'212.6
2018-Feb-14 01:30N 40°46' W 074°01'1 1.2
2018-Feb-14 01:00N 40°46' W 074°01'3 7.0
2018-Feb-14 00:31N 40°43' W 074°01'0 0.1
2018-Feb-14 00:00N 40°43' W 074°01'0 0.0
2018-Feb-13 23:30N 40°43' W 074°01'0 0.0
2018-Feb-13 23:01N 40°43' W 074°01'0 0.1
2018-Feb-13 22:30N 40°43' W 074°01'0 0.1
2018-Feb-13 22:00N 40°43' W 074°01'0 0.0
2018-Feb-13 21:31N 40°43' W 074°01'0 0.0
2018-Feb-13 21:00N 40°43' W 074°01'0 0.2
2018-Feb-13 20:31N 40°43' W 074°01'0 0.2
2018-Feb-13 20:00N 40°43' W 074°01'0 0.0
2018-Feb-13 19:30N 40°43' W 074°01'0 0.0
2018-Feb-13 19:01N 40°43' W 074°01'0 0.0
2018-Feb-13 18:30N 40°43' W 074°01'0 0.0
2018-Feb-13 18:00N 40°43' W 074°01'0 0.0
2018-Feb-13 17:30N 40°43' W 074°01'0 0.1
2018-Feb-13 17:00N 40°43' W 074°01'0 0.0
2018-Feb-13 16:31N 40°43' W 074°01'0 0.0
2018-Feb-13 16:01N 40°43' W 074°01'0 0.0
2018-Feb-13 15:31N 40°43' W 074°01'0 0.0
2018-Feb-13 15:01N 40°43' W 074°01'0 0.0
2018-Feb-13 14:31N 40°43' W 074°01'0 0.0
2018-Feb-13 14:00N 40°43' W 074°01'0 0.2
2018-Feb-13 13:30N 40°43' W 074°01'0 0.1
2018-Feb-13 13:00N 40°43' W 074°01'0 0.1
2018-Feb-13 12:30N 40°43' W 074°01'0 0.0
2018-Feb-13 12:00N 40°43' W 074°01'0 0.1
2018-Feb-13 11:30N 40°43' W 074°01'1 2.6
2018-Feb-13 11:00N 40°44' W 074°02'0 0.0
2018-Feb-13 04:11N 40°44' W 074°02'1 7.2
2018-Feb-13 04:00N 40°43' W 074°01'0 0.9
2018-Feb-13 03:30N 40°43' W 074°02'1 1.1
2018-Feb-13 03:00N 40°43' W 074°01'1 1.2
2018-Feb-13 02:31N 40°43' W 074°02'1 1.2
2018-Feb-13 02:00N 40°43' W 074°01'1 1.1
2018-Feb-13 01:31N 40°43' W 074°02'1 1.1
2018-Feb-13 01:00N 40°43' W 074°01'0 0.0
2018-Feb-13 00:30N 40°43' W 074°01'0 0.0
2018-Feb-13 00:00N 40°43' W 074°01'0 0.0
2018-Feb-12 23:31N 40°43' W 074°01'0 0.0
2018-Feb-12 23:00N 40°43' W 074°01'0 0.0
2018-Feb-12 22:30N 40°43' W 074°01'0 0.0
2018-Feb-12 22:00N 40°43' W 074°01'0 0.0
2018-Feb-12 21:30N 40°43' W 074°01'0 0.1
2018-Feb-12 21:00N 40°43' W 074°01'0 0.0
2018-Feb-12 20:30N 40°43' W 074°01'0 0.1
2018-Feb-12 20:00N 40°43' W 074°01'0 0.0
2018-Feb-12 19:30N 40°43' W 074°01'0 0.1
2018-Feb-12 19:00N 40°43' W 074°01'0 0.1
2018-Feb-12 18:30N 40°43' W 074°01'0 0.0
2018-Feb-12 18:00N 40°43' W 074°01'0 0.0
2018-Feb-12 17:30N 40°43' W 074°01'0 0.0
2018-Feb-12 17:00N 40°43' W 074°01'0 0.0
2018-Feb-12 16:30N 40°43' W 074°01'0 0.1
2018-Feb-12 16:00N 40°43' W 074°01'0 0.1
2018-Feb-12 15:30N 40°43' W 074°01'0 0.1
2018-Feb-12 15:00N 40°43' W 074°01'0 0.0
2018-Feb-12 14:30N 40°43' W 074°01'0 0.1
2018-Feb-12 14:00N 40°43' W 074°01'0 0.0
2018-Feb-12 13:00N 40°43' W 074°01'0 0.1
2018-Feb-12 12:30N 40°43' W 074°01'0 0.1
2018-Feb-12 12:01N 40°43' W 074°01'0 0.1
2018-Feb-12 11:30N 40°43' W 074°01'1 2.5
2018-Feb-12 11:00N 40°44' W 074°02'  
Track history (hours):
 
Tides and Currents Weather Stations Pressure Air Temp Water Temp Dewpoint Dewpoint Depression Visibility Wind Speed Wind Dir Waves Ship Positions

Abraham Lincoln

Owner: PORT IMPERIAL FERRY CORP, WEEHAWKEN, NJ. More information available from US FCC via Universal Licensing System and Coast Guard Vessel Documentation Center.

Last reported at 2018-Feb-20 23:58 UTC. Time now 2018-Feb-21 11:00 UTC.
Position N 40°44' W 074°02'.

Length 30 m; draft 2 m.

Type: Passenger vessel. MMSI: 366990620.

Date/timePositionNaut miles runAvg speedWind from/ knotsBaromVisibWave heightAir tempDewpointWater temp
2018-Feb-20 23:58N 40°44' W 074°02'1 2.8
2018-Feb-20 23:31N 40°43' W 074°01'1 2.4
2018-Feb-20 23:00N 40°44' W 074°02'1 2.4
2018-Feb-20 22:30N 40°43' W 074°01'1 2.4
2018-Feb-20 22:00N 40°44' W 074°02'1 2.4
2018-Feb-20 21:30N 40°43' W 074°01'1 2.4
2018-Feb-20 21:00N 40°44' W 074°02'1 2.4
2018-Feb-20 20:31N 40°43' W 074°01'1 2.4
2018-Feb-20 20:00N 40°44' W 074°02'2 4.4
2018-Feb-20 19:29N 40°46' W 074°01'0 0.0
2018-Feb-20 19:00N 40°46' W 074°01'0 0.4
2018-Feb-20 18:29N 40°46' W 074°01'1 0.2
2018-Feb-20 15:27N 40°47' W 074°01'4 8.1
2018-Feb-20 15:00N 40°43' W 074°01'1 2.4
2018-Feb-20 14:30N 40°44' W 074°02'1 2.4
2018-Feb-20 14:00N 40°43' W 074°01'1 2.3
2018-Feb-20 13:29N 40°44' W 074°02'1 2.5
2018-Feb-20 13:00N 40°43' W 074°01'1 2.4
2018-Feb-20 12:30N 40°44' W 074°02'1 2.4
2018-Feb-20 12:00N 40°43' W 074°01'1 2.4
2018-Feb-20 11:30N 40°44' W 074°02'0 0.1
2018-Feb-20 10:59N 40°44' W 074°02'  
2018-Feb-17 02:15N 40°44' W 074°02'1 5.2
2018-Feb-17 02:01N 40°43' W 074°01'0 0.0
2018-Feb-17 01:30N 40°43' W 074°01'0 0.0
2018-Feb-17 01:00N 40°43' W 074°01'0 0.0
2018-Feb-17 00:30N 40°43' W 074°01'0 0.0
2018-Feb-17 00:00N 40°43' W 074°01'0 0.0
2018-Feb-16 23:30N 40°43' W 074°01'1 2.5
2018-Feb-16 23:00N 40°44' W 074°02'1 2.5
2018-Feb-16 22:30N 40°43' W 074°01'1 2.4
2018-Feb-16 22:00N 40°44' W 074°02'1 2.4
2018-Feb-16 21:30N 40°43' W 074°01'1 2.4
2018-Feb-16 20:59N 40°44' W 074°02'1 2.5
2018-Feb-16 20:30N 40°43' W 074°01'1 1.9
2018-Feb-16 20:00N 40°44' W 074°01'3 5.4
2018-Feb-16 19:30N 40°47' W 074°01'0 0.0
2018-Feb-16 15:51N 40°47' W 074°01'411.0
2018-Feb-16 15:30N 40°43' W 074°01'1 2.8
2018-Feb-16 15:00N 40°44' W 074°02'1 2.3
2018-Feb-16 14:30N 40°43' W 074°01'1 2.3
2018-Feb-16 14:00N 40°44' W 074°02'1 2.4
2018-Feb-16 13:30N 40°43' W 074°01'1 2.4
2018-Feb-16 13:00N 40°44' W 074°02'1 2.5
2018-Feb-16 12:30N 40°43' W 074°01'1 2.4
2018-Feb-16 12:00N 40°44' W 074°02'1 2.5
2018-Feb-16 11:30N 40°43' W 074°01'1 2.4
2018-Feb-16 11:00N 40°44' W 074°02'2 0.1
2018-Feb-15 16:22N 40°46' W 074°01'0 0.1
2018-Feb-15 15:59N 40°46' W 074°01'0 0.0
2018-Feb-15 15:30N 40°46' W 074°01'1 1.7
2018-Feb-15 15:00N 40°46' W 074°01'0 0.1
2018-Feb-15 14:30N 40°45' W 074°01'0 0.0
2018-Feb-15 14:00N 40°45' W 074°01'0 0.1
2018-Feb-15 13:30N 40°46' W 074°01'0 0.1
2018-Feb-15 13:00N 40°46' W 074°01'0 0.1
2018-Feb-15 12:30N 40°46' W 074°01'1 1.9
2018-Feb-15 12:00N 40°46' W 074°01'0 0.0
2018-Feb-15 01:45N 40°46' W 074°01'313.8
2018-Feb-15 01:30N 40°43' W 074°02'1 1.3
2018-Feb-15 01:00N 40°43' W 074°01'0 0.1
2018-Feb-15 00:30N 40°43' W 074°01'0 0.1
2018-Feb-15 00:00N 40°43' W 074°01'0 0.0
2018-Feb-14 23:30N 40°43' W 074°01'0 0.1
2018-Feb-14 23:00N 40°43' W 074°01'0 0.1
2018-Feb-14 22:30N 40°43' W 074°01'0 0.0
2018-Feb-14 22:00N 40°43' W 074°01'0 0.1
2018-Feb-14 21:30N 40°43' W 074°01'0 0.2
2018-Feb-14 21:00N 40°43' W 074°01'0 0.0
2018-Feb-14 20:30N 40°43' W 074°01'0 0.0
2018-Feb-14 20:00N 40°43' W 074°01'0 0.1
2018-Feb-14 19:30N 40°43' W 074°01'0 0.1
2018-Feb-14 19:00N 40°43' W 074°01'0 0.1
2018-Feb-14 18:30N 40°43' W 074°01'0 0.0
2018-Feb-14 18:00N 40°43' W 074°01'0 0.0
2018-Feb-14 17:30N 40°43' W 074°01'0 0.0
2018-Feb-14 17:00N 40°43' W 074°01'0 0.0
2018-Feb-14 16:30N 40°43' W 074°01'0 0.1
2018-Feb-14 16:00N 40°43' W 074°01'0 0.1
2018-Feb-14 15:30N 40°43' W 074°01'0 0.0
2018-Feb-14 15:00N 40°43' W 074°01'0 0.3
2018-Feb-14 14:30N 40°43' W 074°01'0 0.3
2018-Feb-14 14:00N 40°43' W 074°01'0 0.0
2018-Feb-14 13:30N 40°43' W 074°01'0 0.1
2018-Feb-14 13:00N 40°43' W 074°01'0 0.2
2018-Feb-14 12:31N 40°43' W 074°01'0 0.1
2018-Feb-14 12:00N 40°43' W 074°01'0 0.1
2018-Feb-14 11:30N 40°43' W 074°01'1 2.6
2018-Feb-14 11:01N 40°44' W 074°02'0 0.0
2018-Feb-14 01:38N 40°44' W 074°02'212.6
2018-Feb-14 01:30N 40°46' W 074°01'1 1.2
2018-Feb-14 01:00N 40°46' W 074°01'3 7.0
2018-Feb-14 00:31N 40°43' W 074°01'0 0.1
2018-Feb-14 00:00N 40°43' W 074°01'0 0.0
2018-Feb-13 23:30N 40°43' W 074°01'0 0.0
2018-Feb-13 23:01N 40°43' W 074°01'0 0.1
2018-Feb-13 22:30N 40°43' W 074°01'0 0.1
2018-Feb-13 22:00N 40°43' W 074°01'0 0.0
2018-Feb-13 21:31N 40°43' W 074°01'0 0.0
2018-Feb-13 21:00N 40°43' W 074°01'0 0.2
2018-Feb-13 20:31N 40°43' W 074°01'0 0.2
2018-Feb-13 20:00N 40°43' W 074°01'0 0.0
2018-Feb-13 19:30N 40°43' W 074°01'0 0.0
2018-Feb-13 19:01N 40°43' W 074°01'0 0.0
2018-Feb-13 18:30N 40°43' W 074°01'0 0.0
2018-Feb-13 18:00N 40°43' W 074°01'0 0.0
2018-Feb-13 17:30N 40°43' W 074°01'0 0.1
2018-Feb-13 17:00N 40°43' W 074°01'0 0.0
2018-Feb-13 16:31N 40°43' W 074°01'0 0.0
2018-Feb-13 16:01N 40°43' W 074°01'0 0.0
2018-Feb-13 15:31N 40°43' W 074°01'0 0.0
2018-Feb-13 15:01N 40°43' W 074°01'0 0.0
2018-Feb-13 14:31N 40°43' W 074°01'0 0.0
2018-Feb-13 14:00N 40°43' W 074°01'0 0.2
2018-Feb-13 13:30N 40°43' W 074°01'0 0.1
2018-Feb-13 13:00N 40°43' W 074°01'0 0.1
2018-Feb-13 12:30N 40°43' W 074°01'0 0.0
2018-Feb-13 12:00N 40°43' W 074°01'0 0.1
2018-Feb-13 11:30N 40°43' W 074°01'1 2.6
2018-Feb-13 11:00N 40°44' W 074°02'0 0.0
2018-Feb-13 04:11N 40°44' W 074°02'1 7.2
2018-Feb-13 04:00N 40°43' W 074°01'0 0.9
2018-Feb-13 03:30N 40°43' W 074°02'1 1.1
2018-Feb-13 03:00N 40°43' W 074°01'1 1.2
2018-Feb-13 02:31N 40°43' W 074°02'1 1.2
2018-Feb-13 02:00N 40°43' W 074°01'1 1.1
2018-Feb-13 01:31N 40°43' W 074°02'1 1.1
2018-Feb-13 01:00N 40°43' W 074°01'0 0.0
2018-Feb-13 00:30N 40°43' W 074°01'0 0.0
2018-Feb-13 00:00N 40°43' W 074°01'0 0.0
2018-Feb-12 23:31N 40°43' W 074°01'0 0.0
2018-Feb-12 23:00N 40°43' W 074°01'0 0.0
2018-Feb-12 22:30N 40°43' W 074°01'0 0.0
2018-Feb-12 22:00N 40°43' W 074°01'0 0.0
2018-Feb-12 21:30N 40°43' W 074°01'0 0.1
2018-Feb-12 21:00N 40°43' W 074°01'0 0.0
2018-Feb-12 20:30N 40°43' W 074°01'0 0.1
2018-Feb-12 20:00N 40°43' W 074°01'0 0.0
2018-Feb-12 19:30N 40°43' W 074°01'0 0.1
2018-Feb-12 19:00N 40°43' W 074°01'0 0.1
2018-Feb-12 18:30N 40°43' W 074°01'0 0.0
2018-Feb-12 18:00N 40°43' W 074°01'0 0.0
2018-Feb-12 17:30N 40°43' W 074°01'0 0.0
2018-Feb-12 17:00N 40°43' W 074°01'0 0.0
2018-Feb-12 16:30N 40°43' W 074°01'0 0.1
2018-Feb-12 16:00N 40°43' W 074°01'0 0.1
2018-Feb-12 15:30N 40°43' W 074°01'0 0.1
2018-Feb-12 15:00N 40°43' W 074°01'0 0.0
2018-Feb-12 14:30N 40°43' W 074°01'0 0.1
2018-Feb-12 14:00N 40°43' W 074°01'0 0.0
2018-Feb-12 13:00N 40°43' W 074°01'0 0.1
2018-Feb-12 12:30N 40°43' W 074°01'0 0.1
2018-Feb-12 12:01N 40°43' W 074°01'0 0.1
2018-Feb-12 11:30N 40°43' W 074°01'1 2.5
2018-Feb-12 11:00N 40°44' W 074°02'  

Dump ship's entire track history